Alexandria, LA

8:09 PM CDT on May 25, 2015 (GMT -0500)
Alexandria International | | Change Station
CLOSE
Current Station
Airport
Location: Alexandria,
Elevation: 89 ft
Nearby Weather Stations
Active Advisory: Special Statement

Elev 89 ft 31.33 °N, 92.56 °W | Updated 1 hour ago

Partly Cloudy
Partly Cloudy
76 °F
Feels Like 76 °F
N
17
Wind Variable Wind from East
Gusts 22 mph

Today
High -- | Low -- °F
--% Chance of Precip.
Yesterday
High -- | Low -- °F
Precip. -- in
6:08 AM 8:05 PM
First Quarter, 53% visible
Pressure 29.94 in
Visibility 10.0 miles
Clouds Few 4400 ft
Few 11000 ft
Dew Point 70 °F
Humidity 82%
Rainfall 0.13 in
Snow Depth Not available.
UV 1 out of 12
Pollen 1.50 out of 12
Air Quality Not available.
Flu Activity Sporadic
METAR KAEX 252353Z 10015G19KT 10SM FEW044 FEW110 24/21 A2993 RMK AO2 LTG DSNT SE SLP138 60013 T02440211 10311 20233 53009

More Conditions Fewer Conditions

Pressure 29.94 in
Visibility 10.0 miles
Clouds Few 4400 ft
Few 11000 ft
Dew Point 70 °F
Humidity 82%
Rainfall 0.13 in
Snow Depth Not available.
UV 1 out of 12
Pollen 1.50 out of 12
Air Quality Not available.
Flu Activity Sporadic
METAR KAEX 252353Z 10015G19KT 10SM FEW044 FEW110 24/21 A2993 RMK AO2 LTG DSNT SE SLP138 60013 T02440211 10311 20233 53009

More Conditions Fewer Conditions

10-Day Weather Forecast

Almanac

Astronomy

May. 25, 2015 Rise Set
Actual Time
Civil Twilight
Nautical Twilight
Astronomical Twilight
Moon
Length of Visible Light
Length of Day
Tomorrow will be .
, % of the Moon is Illuminated

Today's Extremes

State Highs State Lows

Community

WunderPhotos

Upload Photos

1,824,201 photos uploaded!

WunderBlogs® & News

Nearby

Air Quality

  Air Quality AQ Index Pollutant
Not available.

Snow Depth

Station Depth Elevation

Earthquake Activity

City Distance Mag. Time & Date
Minimum magnitude displayed is 2.5.

Coastal Water Temperatures

Place Temperature

Stations

Nearby Weather Stations

Station Location Temp. Windchill Dew Point Humidity Wind Precip. Elev Updated Type
                   
Special Statement
Statement as of 7:44 PM CDT on May 25, 2015

... Significant weather advisory for south central Rapides...
northwestern Evangeline and northeastern Allen parishes until 830 PM
CDT...

At 744 PM CDT... Doppler radar was tracking a strong thunderstorm over
Beaver... or near Oakdale... moving north at 40 mph.

Dime size hail and winds in excess of 40 mph will be possible with
this storm.

Locations impacted include...
Oakdale... Glenmora... Allen Parish Airport... Beaver and McNary.

Precautionary/preparedness actions...

Torrential rainfall is also occurring with this storm... and may lead
to flash flooding. Do not drive your vehicle through flooded
roadways.


A Tornado Watch remains in effect until 200 am CDT for southwestern
Louisiana.

Lat... Lon 3072 9250 3075 9271 3104 9269 3105 9245
time... Mot... loc 0044z 187deg 34kt 3082 9260


Erickson